sensor_id;sensor_type;location;lat;lon;timestamp;P1;durP1;ratioP1;P2;durP2;ratioP2
34930;SDS011;21134;49.646;8.560;2023-02-28T00:01:23;0.47;;;0.47;;
34930;SDS011;21134;49.646;8.560;2023-02-28T00:03:50;0.63;;;0.60;;
34930;SDS011;21134;49.646;8.560;2023-02-28T00:06:16;0.40;;;0.40;;
34930;SDS011;21134;49.646;8.560;2023-02-28T00:08:44;0.67;;;0.60;;
34930;SDS011;21134;49.646;8.560;2023-02-28T00:11:11;0.00;;;0.00;;
34930;SDS011;21134;49.646;8.560;2023-02-28T00:13:40;1.30;;;0.70;;
34930;SDS011;21134;49.646;8.560;2023-02-28T00:16:09;0.33;;;0.27;;
34930;SDS011;21134;49.646;8.560;2023-02-28T00:18:38;0.90;;;0.43;;
34930;SDS011;21134;49.646;8.560;2023-02-28T00:21:05;0.70;;;0.70;;
34930;SDS011;21134;49.646;8.560;2023-02-28T00:23:32;1.90;;;1.20;;
34930;SDS011;21134;49.646;8.560;2023-02-28T00:26:01;0.43;;;0.30;;
34930;SDS011;21134;49.646;8.560;2023-02-28T00:28:27;0.27;;;0.27;;
34930;SDS011;21134;49.646;8.560;2023-02-28T00:30:54;0.97;;;0.97;;
34930;SDS011;21134;49.646;8.560;2023-02-28T00:33:22;2.17;;;1.17;;
34930;SDS011;21134;49.646;8.560;2023-02-28T00:35:48;1.00;;;0.40;;
34930;SDS011;21134;49.646;8.560;2023-02-28T00:38:15;0.53;;;0.40;;
34930;SDS011;21134;49.646;8.560;2023-02-28T00:40:42;3.00;;;0.43;;
34930;SDS011;21134;49.646;8.560;2023-02-28T00:43:10;0.00;;;0.00;;
34930;SDS011;21134;49.646;8.560;2023-02-28T00:45:36;1.30;;;0.57;;
34930;SDS011;21134;49.646;8.560;2023-02-28T00:48:03;0.07;;;0.07;;
34930;SDS011;21134;49.646;8.560;2023-02-28T00:50:30;0.50;;;0.50;;
34930;SDS011;21134;49.646;8.560;2023-02-28T00:52:56;0.10;;;0.10;;
34930;SDS011;21134;49.646;8.560;2023-02-28T00:55:23;3.50;;;1.00;;
34930;SDS011;21134;49.646;8.560;2023-02-28T00:57:49;1.07;;;0.83;;
34930;SDS011;21134;49.646;8.560;2023-02-28T01:00:17;0.30;;;0.30;;
34930;SDS011;21134;49.646;8.560;2023-02-28T01:02:44;0.00;;;0.00;;
34930;SDS011;21134;49.646;8.560;2023-02-28T01:05:11;8.13;;;1.00;;
34930;SDS011;21134;49.646;8.560;2023-02-28T01:07:37;0.10;;;0.10;;
34930;SDS011;21134;49.646;8.560;2023-02-28T01:10:04;0.43;;;0.43;;
34930;SDS011;21134;49.646;8.560;2023-02-28T01:12:31;1.03;;;0.93;;
34930;SDS011;21134;49.646;8.560;2023-02-28T01:14:57;0.17;;;0.17;;
34930;SDS011;21134;49.646;8.560;2023-02-28T01:17:25;0.00;;;0.00;;
34930;SDS011;21134;49.646;8.560;2023-02-28T01:19:52;0.00;;;0.00;;
34930;SDS011;21134;49.646;8.560;2023-02-28T01:22:19;2.43;;;0.73;;
34930;SDS011;21134;49.646;8.560;2023-02-28T01:24:46;0.40;;;0.20;;
34930;SDS011;21134;49.646;8.560;2023-02-28T01:27:12;0.30;;;0.30;;
34930;SDS011;21134;49.646;8.560;2023-02-28T01:29:39;0.40;;;0.30;;
34930;SDS011;21134;49.646;8.560;2023-02-28T01:32:06;4.53;;;1.00;;
34930;SDS011;21134;49.646;8.560;2023-02-28T01:34:33;0.00;;;0.00;;
34930;SDS011;21134;49.646;8.560;2023-02-28T01:37:00;0.23;;;0.23;;
34930;SDS011;21134;49.646;8.560;2023-02-28T01:39:26;0.97;;;0.30;;
34930;SDS011;21134;49.646;8.560;2023-02-28T01:41:53;0.20;;;0.20;;
34930;SDS011;21134;49.646;8.560;2023-02-28T01:47:25;0.80;;;0.17;;
34930;SDS011;21134;49.646;8.560;2023-02-28T01:49:56;1.20;;;0.30;;
34930;SDS011;21134;49.646;8.560;2023-02-28T01:52:24;0.60;;;0.60;;
34930;SDS011;21134;49.646;8.560;2023-02-28T01:54:52;1.13;;;0.60;;
34930;SDS011;21134;49.646;8.560;2023-02-28T01:57:22;0.57;;;0.10;;
34930;SDS011;21134;49.646;8.560;2023-02-28T01:59:54;6.43;;;0.50;;
34930;SDS011;21134;49.646;8.560;2023-02-28T02:02:26;0.30;;;0.30;;
34930;SDS011;21134;49.646;8.560;2023-02-28T02:04:55;0.30;;;0.30;;
34930;SDS011;21134;49.646;8.560;2023-02-28T02:07:26;0.63;;;0.63;;
34930;SDS011;21134;49.646;8.560;2023-02-28T02:10:01;0.00;;;0.00;;
34930;SDS011;21134;49.646;8.560;2023-02-28T02:12:33;0.20;;;0.10;;
34930;SDS011;21134;49.646;8.560;2023-02-28T02:15:12;0.17;;;0.17;;
34930;SDS011;21134;49.646;8.560;2023-02-28T02:17:42;0.70;;;0.70;;
34930;SDS011;21134;49.646;8.560;2023-02-28T02:20:20;1.70;;;0.87;;
34930;SDS011;21134;49.646;8.560;2023-02-28T02:23:17;0.23;;;0.23;;
34930;SDS011;21134;49.646;8.560;2023-02-28T02:26:09;0.37;;;0.37;;
34930;SDS011;21134;49.646;8.560;2023-02-28T02:28:54;0.27;;;0.27;;
34930;SDS011;21134;49.646;8.560;2023-02-28T02:31:43;0.20;;;0.17;;
34930;SDS011;21134;49.646;8.560;2023-02-28T02:34:38;0.50;;;0.50;;
34930;SDS011;21134;49.646;8.560;2023-02-28T02:37:10;0.10;;;0.10;;
34930;SDS011;21134;49.646;8.560;2023-02-28T02:39:44;0.20;;;0.20;;
34930;SDS011;21134;49.646;8.560;2023-02-28T02:42:20;2.07;;;0.67;;
34930;SDS011;21134;49.646;8.560;2023-02-28T02:44:54;1.43;;;0.20;;
34930;SDS011;21134;49.646;8.560;2023-02-28T02:47:24;0.20;;;0.10;;
34930;SDS011;21134;49.646;8.560;2023-02-28T02:49:57;0.30;;;0.30;;
34930;SDS011;21134;49.646;8.560;2023-02-28T02:52:28;0.23;;;0.23;;
34930;SDS011;21134;49.646;8.560;2023-02-28T02:54:58;0.63;;;0.63;;
34930;SDS011;21134;49.646;8.560;2023-02-28T02:57:27;0.23;;;0.23;;
34930;SDS011;21134;49.646;8.560;2023-02-28T03:00:00;0.30;;;0.30;;
34930;SDS011;21134;49.646;8.560;2023-02-28T03:02:30;0.10;;;0.10;;
34930;SDS011;21134;49.646;8.560;2023-02-28T03:05:01;0.63;;;0.27;;
34930;SDS011;21134;49.646;8.560;2023-02-28T03:07:30;1.90;;;1.10;;
34930;SDS011;21134;49.646;8.560;2023-02-28T03:09:57;0.07;;;0.07;;
34930;SDS011;21134;49.646;8.560;2023-02-28T03:12:25;0.17;;;0.17;;
34930;SDS011;21134;49.646;8.560;2023-02-28T03:15:08;0.30;;;0.30;;
34930;SDS011;21134;49.646;8.560;2023-02-28T03:17:52;0.23;;;0.23;;
34930;SDS011;21134;49.646;8.560;2023-02-28T03:20:32;0.73;;;0.67;;
34930;SDS011;21134;49.646;8.560;2023-02-28T03:23:07;0.00;;;0.00;;
34930;SDS011;21134;49.646;8.560;2023-02-28T03:25:44;0.27;;;0.13;;
34930;SDS011;21134;49.646;8.560;2023-02-28T03:28:20;0.60;;;0.23;;
34930;SDS011;21134;49.646;8.560;2023-02-28T03:30:57;1.50;;;0.93;;
34930;SDS011;21134;49.646;8.560;2023-02-28T03:33:30;0.13;;;0.13;;
34930;SDS011;21134;49.646;8.560;2023-02-28T03:36:03;1.23;;;0.40;;
34930;SDS011;21134;49.646;8.560;2023-02-28T03:38:34;0.53;;;0.43;;
34930;SDS011;21134;49.646;8.560;2023-02-28T03:41:05;0.07;;;0.07;;
34930;SDS011;21134;49.646;8.560;2023-02-28T03:43:38;0.40;;;0.37;;
34930;SDS011;21134;49.646;8.560;2023-02-28T03:46:08;0.40;;;0.40;;
34930;SDS011;21134;49.646;8.560;2023-02-28T03:48:40;1.73;;;0.43;;
34930;SDS011;21134;49.646;8.560;2023-02-28T03:51:12;0.93;;;0.93;;
34930;SDS011;21134;49.646;8.560;2023-02-28T03:53:44;0.13;;;0.13;;
34930;SDS011;21134;49.646;8.560;2023-02-28T03:56:15;0.93;;;0.40;;
34930;SDS011;21134;49.646;8.560;2023-02-28T03:58:47;0.20;;;0.10;;
34930;SDS011;21134;49.646;8.560;2023-02-28T04:01:19;0.30;;;0.30;;
34930;SDS011;21134;49.646;8.560;2023-02-28T04:03:49;0.00;;;0.00;;
34930;SDS011;21134;49.646;8.560;2023-02-28T04:06:18;0.40;;;0.37;;
34930;SDS011;21134;49.646;8.560;2023-02-28T04:08:46;0.33;;;0.20;;
34930;SDS011;21134;49.646;8.560;2023-02-28T04:11:16;1.80;;;0.50;;
34930;SDS011;21134;49.646;8.560;2023-02-28T04:13:46;0.63;;;0.27;;
34930;SDS011;21134;49.646;8.560;2023-02-28T04:16:13;1.23;;;0.20;;
34930;SDS011;21134;49.646;8.560;2023-02-28T04:18:40;0.77;;;0.73;;
34930;SDS011;21134;49.646;8.560;2023-02-28T04:21:08;0.10;;;0.10;;
34930;SDS011;21134;49.646;8.560;2023-02-28T04:23:37;1.40;;;0.50;;
34930;SDS011;21134;49.646;8.560;2023-02-28T04:26:03;0.23;;;0.23;;
34930;SDS011;21134;49.646;8.560;2023-02-28T04:28:30;0.40;;;0.40;;
34930;SDS011;21134;49.646;8.560;2023-02-28T04:30:57;0.10;;;0.10;;
34930;SDS011;21134;49.646;8.560;2023-02-28T04:33:25;0.40;;;0.40;;
34930;SDS011;21134;49.646;8.560;2023-02-28T04:35:58;0.67;;;0.30;;
34930;SDS011;21134;49.646;8.560;2023-02-28T04:38:25;1.67;;;0.27;;
34930;SDS011;21134;49.646;8.560;2023-02-28T04:40:53;0.77;;;0.77;;
34930;SDS011;21134;49.646;8.560;2023-02-28T04:43:19;9.80;;;0.70;;
34930;SDS011;21134;49.646;8.560;2023-02-28T04:45:46;2.40;;;0.33;;
34930;SDS011;21134;49.646;8.560;2023-02-28T04:48:12;0.00;;;0.00;;
34930;SDS011;21134;49.646;8.560;2023-02-28T04:50:39;0.73;;;0.43;;
34930;SDS011;21134;49.646;8.560;2023-02-28T04:53:05;0.77;;;0.40;;
34930;SDS011;21134;49.646;8.560;2023-02-28T04:55:32;0.10;;;0.10;;
34930;SDS011;21134;49.646;8.560;2023-02-28T04:58:00;3.97;;;0.43;;
34930;SDS011;21134;49.646;8.560;2023-02-28T05:00:26;1.20;;;0.50;;
34930;SDS011;21134;49.646;8.560;2023-02-28T05:02:53;0.13;;;0.13;;
34930;SDS011;21134;49.646;8.560;2023-02-28T05:05:19;0.00;;;0.00;;
34930;SDS011;21134;49.646;8.560;2023-02-28T05:07:46;2.33;;;0.87;;
34930;SDS011;21134;49.646;8.560;2023-02-28T05:10:12;0.20;;;0.20;;
34930;SDS011;21134;49.646;8.560;2023-02-28T05:12:38;0.20;;;0.20;;
34930;SDS011;21134;49.646;8.560;2023-02-28T05:15:07;0.50;;;0.17;;
34930;SDS011;21134;49.646;8.560;2023-02-28T05:17:38;0.20;;;0.20;;
34930;SDS011;21134;49.646;8.560;2023-02-28T05:20:05;0.00;;;0.00;;
34930;SDS011;21134;49.646;8.560;2023-02-28T05:22:33;1.47;;;0.87;;
34930;SDS011;21134;49.646;8.560;2023-02-28T05:25:00;0.50;;;0.40;;
34930;SDS011;21134;49.646;8.560;2023-02-28T05:27:26;0.30;;;0.30;;
34930;SDS011;21134;49.646;8.560;2023-02-28T05:29:53;0.13;;;0.13;;
34930;SDS011;21134;49.646;8.560;2023-02-28T05:32:21;0.40;;;0.40;;
34930;SDS011;21134;49.646;8.560;2023-02-28T05:34:48;1.53;;;0.83;;
34930;SDS011;21134;49.646;8.560;2023-02-28T05:37:14;1.67;;;0.90;;
34930;SDS011;21134;49.646;8.560;2023-02-28T05:39:41;0.80;;;0.77;;
34930;SDS011;21134;49.646;8.560;2023-02-28T05:42:08;0.10;;;0.10;;
34930;SDS011;21134;49.646;8.560;2023-02-28T05:44:35;0.43;;;0.43;;
34930;SDS011;21134;49.646;8.560;2023-02-28T05:47:02;0.40;;;0.40;;
34930;SDS011;21134;49.646;8.560;2023-02-28T05:49:30;1.83;;;0.97;;
34930;SDS011;21134;49.646;8.560;2023-02-28T05:51:56;1.57;;;1.03;;
34930;SDS011;21134;49.646;8.560;2023-02-28T05:54:23;0.83;;;0.27;;
34930;SDS011;21134;49.646;8.560;2023-02-28T05:56:49;0.27;;;0.27;;
34930;SDS011;21134;49.646;8.560;2023-02-28T05:59:16;0.00;;;0.00;;
34930;SDS011;21134;49.646;8.560;2023-02-28T06:01:43;1.00;;;0.87;;
34930;SDS011;21134;49.646;8.560;2023-02-28T06:04:13;1.07;;;0.97;;
34930;SDS011;21134;49.646;8.560;2023-02-28T06:06:44;0.20;;;0.20;;
34930;SDS011;21134;49.646;8.560;2023-02-28T06:09:10;0.57;;;0.37;;
34930;SDS011;21134;49.646;8.560;2023-02-28T06:11:37;0.33;;;0.33;;
34930;SDS011;21134;49.646;8.560;2023-02-28T06:14:04;0.77;;;0.50;;
34930;SDS011;21134;49.646;8.560;2023-02-28T06:16:32;0.40;;;0.40;;
34930;SDS011;21134;49.646;8.560;2023-02-28T06:19:00;0.50;;;0.50;;
34930;SDS011;21134;49.646;8.560;2023-02-28T06:21:28;0.20;;;0.20;;
34930;SDS011;21134;49.646;8.560;2023-02-28T06:23:56;0.77;;;0.77;;
34930;SDS011;21134;49.646;8.560;2023-02-28T06:26:23;0.57;;;0.50;;
34930;SDS011;21134;49.646;8.560;2023-02-28T06:28:50;1.97;;;0.50;;
34930;SDS011;21134;49.646;8.560;2023-02-28T06:31:17;0.03;;;0.03;;
34930;SDS011;21134;49.646;8.560;2023-02-28T06:33:44;0.70;;;0.70;;
34930;SDS011;21134;49.646;8.560;2023-02-28T06:36:12;0.43;;;0.23;;
34930;SDS011;21134;49.646;8.560;2023-02-28T06:38:40;0.77;;;0.67;;
34930;SDS011;21134;49.646;8.560;2023-02-28T06:41:08;0.93;;;0.90;;
34930;SDS011;21134;49.646;8.560;2023-02-28T06:43:35;1.23;;;0.30;;
34930;SDS011;21134;49.646;8.560;2023-02-28T06:46:05;0.30;;;0.30;;
34930;SDS011;21134;49.646;8.560;2023-02-28T06:48:33;1.50;;;0.70;;
34930;SDS011;21134;49.646;8.560;2023-02-28T06:51:03;0.03;;;0.03;;
34930;SDS011;21134;49.646;8.560;2023-02-28T06:53:31;0.43;;;0.33;;
34930;SDS011;21134;49.646;8.560;2023-02-28T06:55:58;0.43;;;0.27;;
34930;SDS011;21134;49.646;8.560;2023-02-28T06:58:26;3.50;;;1.50;;
34930;SDS011;21134;49.646;8.560;2023-02-28T07:00:52;0.13;;;0.13;;
34930;SDS011;21134;49.646;8.560;2023-02-28T07:03:19;0.20;;;0.20;;
34930;SDS011;21134;49.646;8.560;2023-02-28T07:05:45;0.77;;;0.20;;
34930;SDS011;21134;49.646;8.560;2023-02-28T07:08:12;0.47;;;0.47;;
34930;SDS011;21134;49.646;8.560;2023-02-28T07:10:39;2.43;;;0.70;;
34930;SDS011;21134;49.646;8.560;2023-02-28T07:13:06;0.67;;;0.67;;
34930;SDS011;21134;49.646;8.560;2023-02-28T07:15:35;0.30;;;0.30;;
34930;SDS011;21134;49.646;8.560;2023-02-28T07:18:02;3.63;;;0.57;;
34930;SDS011;21134;49.646;8.560;2023-02-28T07:20:29;0.73;;;0.73;;
34930;SDS011;21134;49.646;8.560;2023-02-28T07:22:56;0.07;;;0.07;;
34930;SDS011;21134;49.646;8.560;2023-02-28T07:25:23;2.00;;;0.80;;
34930;SDS011;21134;49.646;8.560;2023-02-28T07:27:50;0.13;;;0.13;;
34930;SDS011;21134;49.646;8.560;2023-02-28T07:30:17;1.30;;;0.77;;
34930;SDS011;21134;49.646;8.560;2023-02-28T07:32:45;1.60;;;0.97;;
34930;SDS011;21134;49.646;8.560;2023-02-28T07:35:13;0.77;;;0.40;;
34930;SDS011;21134;49.646;8.560;2023-02-28T07:37:40;0.73;;;0.70;;
34930;SDS011;21134;49.646;8.560;2023-02-28T07:40:08;0.00;;;0.00;;
34930;SDS011;21134;49.646;8.560;2023-02-28T07:42:37;0.47;;;0.37;;
34930;SDS011;21134;49.646;8.560;2023-02-28T07:45:04;0.83;;;0.37;;
34930;SDS011;21134;49.646;8.560;2023-02-28T07:47:31;0.73;;;0.73;;
34930;SDS011;21134;49.646;8.560;2023-02-28T07:49:59;0.00;;;0.00;;
34930;SDS011;21134;49.646;8.560;2023-02-28T07:52:26;2.53;;;0.67;;
34930;SDS011;21134;49.646;8.560;2023-02-28T07:54:53;0.20;;;0.20;;
34930;SDS011;21134;49.646;8.560;2023-02-28T07:57:19;0.10;;;0.10;;
34930;SDS011;21134;49.646;8.560;2023-02-28T07:59:46;0.67;;;0.67;;
34930;SDS011;21134;49.646;8.560;2023-02-28T08:02:13;0.43;;;0.43;;
34930;SDS011;21134;49.646;8.560;2023-02-28T08:04:40;0.33;;;0.23;;
34930;SDS011;21134;49.646;8.560;2023-02-28T08:07:08;1.90;;;1.13;;
34930;SDS011;21134;49.646;8.560;2023-02-28T08:09:38;1.97;;;0.90;;
34930;SDS011;21134;49.646;8.560;2023-02-28T08:12:05;0.60;;;0.43;;
34930;SDS011;21134;49.646;8.560;2023-02-28T08:14:32;1.23;;;0.73;;
34930;SDS011;21134;49.646;8.560;2023-02-28T08:16:59;1.70;;;0.87;;
34930;SDS011;21134;49.646;8.560;2023-02-28T08:19:26;0.93;;;0.90;;
34930;SDS011;21134;49.646;8.560;2023-02-28T08:21:53;0.17;;;0.17;;
34930;SDS011;21134;49.646;8.560;2023-02-28T08:24:20;1.17;;;0.93;;
34930;SDS011;21134;49.646;8.560;2023-02-28T08:26:47;2.13;;;0.57;;
34930;SDS011;21134;49.646;8.560;2023-02-28T08:29:14;0.73;;;0.73;;
34930;SDS011;21134;49.646;8.560;2023-02-28T08:31:40;0.40;;;0.40;;
34930;SDS011;21134;49.646;8.560;2023-02-28T08:34:07;3.70;;;0.30;;
34930;SDS011;21134;49.646;8.560;2023-02-28T08:36:34;0.63;;;0.63;;
34930;SDS011;21134;49.646;8.560;2023-02-28T08:39:01;0.23;;;0.23;;
34930;SDS011;21134;49.646;8.560;2023-02-28T08:41:29;1.17;;;0.47;;
34930;SDS011;21134;49.646;8.560;2023-02-28T08:43:56;0.00;;;0.00;;
34930;SDS011;21134;49.646;8.560;2023-02-28T08:46:23;0.20;;;0.20;;
34930;SDS011;21134;49.646;8.560;2023-02-28T08:48:51;3.63;;;0.97;;
34930;SDS011;21134;49.646;8.560;2023-02-28T08:51:18;0.73;;;0.60;;
34930;SDS011;21134;49.646;8.560;2023-02-28T08:53:51;1.27;;;0.90;;
34930;SDS011;21134;49.646;8.560;2023-02-28T08:56:18;2.03;;;1.20;;
34930;SDS011;21134;49.646;8.560;2023-02-28T08:58:47;0.70;;;0.47;;
34930;SDS011;21134;49.646;8.560;2023-02-28T09:01:15;0.40;;;0.40;;
34930;SDS011;21134;49.646;8.560;2023-02-28T09:03:44;1.53;;;1.10;;
34930;SDS011;21134;49.646;8.560;2023-02-28T09:06:12;2.20;;;1.30;;
34930;SDS011;21134;49.646;8.560;2023-02-28T09:08:40;3.30;;;2.30;;
34930;SDS011;21134;49.646;8.560;2023-02-28T09:11:07;1.27;;;0.53;;
34930;SDS011;21134;49.646;8.560;2023-02-28T09:13:34;2.43;;;0.60;;
34930;SDS011;21134;49.646;8.560;2023-02-28T09:16:03;3.13;;;1.37;;
34930;SDS011;21134;49.646;8.560;2023-02-28T09:18:31;1.30;;;0.33;;
34930;SDS011;21134;49.646;8.560;2023-02-28T09:20:59;1.43;;;0.80;;
34930;SDS011;21134;49.646;8.560;2023-02-28T09:23:29;1.07;;;1.07;;
34930;SDS011;21134;49.646;8.560;2023-02-28T09:25:56;1.33;;;1.23;;
34930;SDS011;21134;49.646;8.560;2023-02-28T09:28:22;1.87;;;1.50;;
34930;SDS011;21134;49.646;8.560;2023-02-28T09:30:49;0.37;;;0.37;;
34930;SDS011;21134;49.646;8.560;2023-02-28T09:33:19;1.90;;;1.23;;
34930;SDS011;21134;49.646;8.560;2023-02-28T09:35:46;1.77;;;1.07;;
34930;SDS011;21134;49.646;8.560;2023-02-28T09:38:13;1.97;;;1.53;;
34930;SDS011;21134;49.646;8.560;2023-02-28T09:40:43;0.70;;;0.53;;
34930;SDS011;21134;49.646;8.560;2023-02-28T09:43:14;3.90;;;1.27;;
34930;SDS011;21134;49.646;8.560;2023-02-28T09:45:45;0.97;;;0.77;;
34930;SDS011;21134;49.646;8.560;2023-02-28T09:48:17;1.17;;;1.00;;
34930;SDS011;21134;49.646;8.560;2023-02-28T09:50:47;2.07;;;1.63;;
34930;SDS011;21134;49.646;8.560;2023-02-28T09:53:19;3.27;;;1.43;;
34930;SDS011;21134;49.646;8.560;2023-02-28T09:55:48;2.23;;;1.50;;
34930;SDS011;21134;49.646;8.560;2023-02-28T09:58:22;0.60;;;0.60;;
34930;SDS011;21134;49.646;8.560;2023-02-28T10:00:56;1.83;;;0.50;;
34930;SDS011;21134;49.646;8.560;2023-02-28T10:03:29;3.33;;;1.30;;
34930;SDS011;21134;49.646;8.560;2023-02-28T10:05:59;3.60;;;0.93;;
34930;SDS011;21134;49.646;8.560;2023-02-28T10:08:34;2.37;;;2.17;;
34930;SDS011;21134;49.646;8.560;2023-02-28T10:11:07;1.97;;;1.30;;
34930;SDS011;21134;49.646;8.560;2023-02-28T10:13:39;1.70;;;0.63;;
34930;SDS011;21134;49.646;8.560;2023-02-28T10:16:16;5.00;;;1.27;;
34930;SDS011;21134;49.646;8.560;2023-02-28T10:18:49;3.77;;;1.37;;
34930;SDS011;21134;49.646;8.560;2023-02-28T10:21:23;1.63;;;1.53;;
34930;SDS011;21134;49.646;8.560;2023-02-28T10:23:56;2.20;;;1.87;;
34930;SDS011;21134;49.646;8.560;2023-02-28T10:26:28;6.70;;;2.10;;
34930;SDS011;21134;49.646;8.560;2023-02-28T10:28:57;1.93;;;1.10;;
34930;SDS011;21134;49.646;8.560;2023-02-28T10:31:23;0.80;;;0.63;;
34930;SDS011;21134;49.646;8.560;2023-02-28T10:33:51;1.93;;;1.00;;
34930;SDS011;21134;49.646;8.560;2023-02-28T10:36:19;0.60;;;0.57;;
34930;SDS011;21134;49.646;8.560;2023-02-28T10:38:46;1.57;;;0.83;;
34930;SDS011;21134;49.646;8.560;2023-02-28T10:41:14;5.87;;;1.17;;
34930;SDS011;21134;49.646;8.560;2023-02-28T10:43:42;1.27;;;0.83;;
34930;SDS011;21134;49.646;8.560;2023-02-28T10:46:14;0.87;;;0.87;;
34930;SDS011;21134;49.646;8.560;2023-02-28T10:48:59;2.70;;;2.27;;
34930;SDS011;21134;49.646;8.560;2023-02-28T10:51:34;2.23;;;1.40;;
34930;SDS011;21134;49.646;8.560;2023-02-28T10:54:02;3.77;;;1.47;;
34930;SDS011;21134;49.646;8.560;2023-02-28T10:56:29;2.30;;;1.53;;
34930;SDS011;21134;49.646;8.560;2023-02-28T10:58:58;1.73;;;1.20;;
34930;SDS011;21134;49.646;8.560;2023-02-28T11:01:34;2.40;;;1.40;;
34930;SDS011;21134;49.646;8.560;2023-02-28T11:04:03;1.10;;;0.80;;
34930;SDS011;21134;49.646;8.560;2023-02-28T11:06:42;2.10;;;0.73;;
34930;SDS011;21134;49.646;8.560;2023-02-28T11:09:15;3.20;;;1.50;;
34930;SDS011;21134;49.646;8.560;2023-02-28T11:11:49;0.57;;;0.57;;
34930;SDS011;21134;49.646;8.560;2023-02-28T11:14:18;0.93;;;0.67;;
34930;SDS011;21134;49.646;8.560;2023-02-28T11:16:47;1.23;;;1.00;;
34930;SDS011;21134;49.646;8.560;2023-02-28T11:19:18;3.00;;;1.33;;
34930;SDS011;21134;49.646;8.560;2023-02-28T11:21:48;3.77;;;1.47;;
34930;SDS011;21134;49.646;8.560;2023-02-28T11:24:21;0.77;;;0.77;;
34930;SDS011;21134;49.646;8.560;2023-02-28T11:26:50;0.87;;;0.70;;
34930;SDS011;21134;49.646;8.560;2023-02-28T11:29:18;2.17;;;1.37;;
34930;SDS011;21134;49.646;8.560;2023-02-28T11:32:03;2.47;;;1.60;;
34930;SDS011;21134;49.646;8.560;2023-02-28T11:34:43;3.00;;;1.23;;
34930;SDS011;21134;49.646;8.560;2023-02-28T11:37:11;1.23;;;0.93;;
34930;SDS011;21134;49.646;8.560;2023-02-28T11:39:40;1.40;;;1.13;;
34930;SDS011;21134;49.646;8.560;2023-02-28T11:42:11;5.97;;;2.37;;
34930;SDS011;21134;49.646;8.560;2023-02-28T11:44:51;1.37;;;0.63;;
34930;SDS011;21134;49.646;8.560;2023-02-28T11:47:31;3.50;;;1.63;;
34930;SDS011;21134;49.646;8.560;2023-02-28T11:50:07;2.40;;;0.97;;
34930;SDS011;21134;49.646;8.560;2023-02-28T11:52:48;2.50;;;1.43;;
34930;SDS011;21134;49.646;8.560;2023-02-28T11:55:19;3.33;;;1.33;;
34930;SDS011;21134;49.646;8.560;2023-02-28T11:58:01;1.87;;;1.43;;
34930;SDS011;21134;49.646;8.560;2023-02-28T12:00:45;3.50;;;1.37;;
34930;SDS011;21134;49.646;8.560;2023-02-28T12:03:32;1.70;;;0.60;;
34930;SDS011;21134;49.646;8.560;2023-02-28T12:06:13;2.83;;;1.87;;
34930;SDS011;21134;49.646;8.560;2023-02-28T12:08:47;1.30;;;1.20;;
34930;SDS011;21134;49.646;8.560;2023-02-28T12:11:24;2.87;;;1.67;;
34930;SDS011;21134;49.646;8.560;2023-02-28T12:14:05;1.23;;;1.13;;
34930;SDS011;21134;49.646;8.560;2023-02-28T12:16:46;1.50;;;1.30;;
34930;SDS011;21134;49.646;8.560;2023-02-28T12:19:21;3.97;;;1.73;;
34930;SDS011;21134;49.646;8.560;2023-02-28T12:22:03;10.47;;;2.27;;
34930;SDS011;21134;49.646;8.560;2023-02-28T12:24:50;3.07;;;2.27;;
34930;SDS011;21134;49.646;8.560;2023-02-28T12:27:28;3.17;;;0.97;;
34930;SDS011;21134;49.646;8.560;2023-02-28T12:29:58;2.33;;;1.27;;
34930;SDS011;21134;49.646;8.560;2023-02-28T12:32:30;0.67;;;0.60;;
34930;SDS011;21134;49.646;8.560;2023-02-28T12:35:01;2.63;;;1.33;;
34930;SDS011;21134;49.646;8.560;2023-02-28T12:37:36;4.27;;;1.47;;
34930;SDS011;21134;49.646;8.560;2023-02-28T12:40:09;1.87;;;1.00;;
34930;SDS011;21134;49.646;8.560;2023-02-28T12:42:39;9.33;;;1.10;;
34930;SDS011;21134;49.646;8.560;2023-02-28T12:45:10;3.67;;;1.73;;
34930;SDS011;21134;49.646;8.560;2023-02-28T12:47:43;3.43;;;1.77;;
34930;SDS011;21134;49.646;8.560;2023-02-28T12:50:14;6.10;;;2.00;;
34930;SDS011;21134;49.646;8.560;2023-02-28T12:52:45;2.30;;;1.50;;
34930;SDS011;21134;49.646;8.560;2023-02-28T12:55:20;3.83;;;1.73;;
34930;SDS011;21134;49.646;8.560;2023-02-28T12:57:53;4.07;;;1.50;;
34930;SDS011;21134;49.646;8.560;2023-02-28T13:00:29;3.73;;;2.43;;
34930;SDS011;21134;49.646;8.560;2023-02-28T13:03:09;1.20;;;1.10;;
34930;SDS011;21134;49.646;8.560;2023-02-28T13:06:10;3.77;;;2.33;;
34930;SDS011;21134;49.646;8.560;2023-02-28T13:09:01;13.83;;;2.20;;
34930;SDS011;21134;49.646;8.560;2023-02-28T13:11:31;3.93;;;1.83;;
34930;SDS011;21134;49.646;8.560;2023-02-28T13:14:00;3.77;;;2.03;;
34930;SDS011;21134;49.646;8.560;2023-02-28T13:16:28;4.00;;;1.40;;
34930;SDS011;21134;49.646;8.560;2023-02-28T13:19:15;4.20;;;2.00;;
34930;SDS011;21134;49.646;8.560;2023-02-28T13:21:45;1.63;;;1.20;;
34930;SDS011;21134;49.646;8.560;2023-02-28T13:24:35;3.77;;;1.80;;
34930;SDS011;21134;49.646;8.560;2023-02-28T13:27:11;3.17;;;1.77;;
34930;SDS011;21134;49.646;8.560;2023-02-28T13:29:49;1.07;;;0.97;;
34930;SDS011;21134;49.646;8.560;2023-02-28T13:32:29;4.67;;;1.63;;
34930;SDS011;21134;49.646;8.560;2023-02-28T13:35:14;3.30;;;1.73;;
34930;SDS011;21134;49.646;8.560;2023-02-28T13:38:09;1.20;;;0.70;;
34930;SDS011;21134;49.646;8.560;2023-02-28T13:40:43;2.70;;;2.00;;
34930;SDS011;21134;49.646;8.560;2023-02-28T13:43:10;3.03;;;1.73;;
34930;SDS011;21134;49.646;8.560;2023-02-28T13:45:36;3.90;;;1.77;;
34930;SDS011;21134;49.646;8.560;2023-02-28T13:48:04;4.00;;;2.50;;
34930;SDS011;21134;49.646;8.560;2023-02-28T13:50:43;2.07;;;1.33;;
34930;SDS011;21134;49.646;8.560;2023-02-28T13:53:26;2.13;;;1.27;;
34930;SDS011;21134;49.646;8.560;2023-02-28T13:56:10;6.83;;;2.13;;
34930;SDS011;21134;49.646;8.560;2023-02-28T13:59:01;6.87;;;2.37;;
34930;SDS011;21134;49.646;8.560;2023-02-28T14:01:43;9.30;;;1.70;;
34930;SDS011;21134;49.646;8.560;2023-02-28T14:07:19;1.37;;;1.27;;
34930;SDS011;21134;49.646;8.560;2023-02-28T14:09:52;2.00;;;1.20;;
34930;SDS011;21134;49.646;8.560;2023-02-28T14:18:27;2.10;;;1.77;;
34930;SDS011;21134;49.646;8.560;2023-02-28T14:21:14;1.33;;;1.23;;
34930;SDS011;21134;49.646;8.560;2023-02-28T14:23:55;2.20;;;1.73;;
34930;SDS011;21134;49.646;8.560;2023-02-28T14:26:37;2.30;;;1.33;;
34930;SDS011;21134;49.646;8.560;2023-02-28T14:29:23;2.07;;;1.60;;
34930;SDS011;21134;49.646;8.560;2023-02-28T14:32:05;1.63;;;1.43;;
34930;SDS011;21134;49.646;8.560;2023-02-28T14:34:41;2.90;;;2.07;;
34930;SDS011;21134;49.646;8.560;2023-02-28T14:37:19;1.50;;;1.27;;
34930;SDS011;21134;49.646;8.560;2023-02-28T14:39:51;3.47;;;1.30;;
34930;SDS011;21134;49.646;8.560;2023-02-28T14:42:25;3.03;;;1.63;;
34930;SDS011;21134;49.646;8.560;2023-02-28T14:44:55;3.00;;;1.90;;
34930;SDS011;21134;49.646;8.560;2023-02-28T14:47:23;2.47;;;1.50;;
34930;SDS011;21134;49.646;8.560;2023-02-28T14:49:54;3.60;;;1.90;;
34930;SDS011;21134;49.646;8.560;2023-02-28T14:52:22;2.13;;;1.63;;
34930;SDS011;21134;49.646;8.560;2023-02-28T14:54:51;4.07;;;1.53;;
34930;SDS011;21134;49.646;8.560;2023-02-28T14:57:21;3.03;;;2.10;;
34930;SDS011;21134;49.646;8.560;2023-02-28T14:59:56;4.90;;;1.50;;
34930;SDS011;21134;49.646;8.560;2023-02-28T15:02:26;4.30;;;2.33;;
34930;SDS011;21134;49.646;8.560;2023-02-28T15:04:56;3.47;;;2.20;;
34930;SDS011;21134;49.646;8.560;2023-02-28T15:07:25;3.67;;;1.73;;
34930;SDS011;21134;49.646;8.560;2023-02-28T15:10:10;3.23;;;1.37;;
34930;SDS011;21134;49.646;8.560;2023-02-28T15:12:41;7.77;;;1.57;;
34930;SDS011;21134;49.646;8.560;2023-02-28T15:15:15;1.40;;;1.30;;
34930;SDS011;21134;49.646;8.560;2023-02-28T15:17:44;4.37;;;1.73;;
34930;SDS011;21134;49.646;8.560;2023-02-28T15:20:13;4.93;;;2.23;;
34930;SDS011;21134;49.646;8.560;2023-02-28T15:22:42;3.63;;;1.93;;